sensor_id;sensor_type;location;lat;lon;timestamp;temperature;humidity
51383;DHT22;37475;43.358;1.248;2023-04-06T00:01:55;4.50;84.40
51383;DHT22;37475;43.358;1.248;2023-04-06T00:04:21;4.30;85.30
51383;DHT22;37475;43.358;1.248;2023-04-06T00:06:47;4.40;86.00
51383;DHT22;37475;43.358;1.248;2023-04-06T00:09:13;4.70;86.10
51383;DHT22;37475;43.358;1.248;2023-04-06T00:11:38;5.00;85.30
51383;DHT22;37475;43.358;1.248;2023-04-06T00:14:04;5.10;84.70
51383;DHT22;37475;43.358;1.248;2023-04-06T00:16:30;5.10;84.40
51383;DHT22;37475;43.358;1.248;2023-04-06T00:18:56;5.10;84.30
51383;DHT22;37475;43.358;1.248;2023-04-06T00:21:22;5.10;84.20
51383;DHT22;37475;43.358;1.248;2023-04-06T00:23:48;5.20;84.10
51383;DHT22;37475;43.358;1.248;2023-04-06T00:26:14;5.20;84.00
51383;DHT22;37475;43.358;1.248;2023-04-06T00:28:39;5.20;84.00
51383;DHT22;37475;43.358;1.248;2023-04-06T00:31:05;5.20;83.80
51383;DHT22;37475;43.358;1.248;2023-04-06T00:33:32;5.10;83.80
51383;DHT22;37475;43.358;1.248;2023-04-06T00:35:57;5.10;83.90
51383;DHT22;37475;43.358;1.248;2023-04-06T00:38:23;5.10;84.00
51383;DHT22;37475;43.358;1.248;2023-04-06T00:40:49;5.00;84.30
51383;DHT22;37475;43.358;1.248;2023-04-06T00:43:15;4.90;84.40
51383;DHT22;37475;43.358;1.248;2023-04-06T00:45:42;4.90;84.70
51383;DHT22;37475;43.358;1.248;2023-04-06T00:48:08;4.80;84.80
51383;DHT22;37475;43.358;1.248;2023-04-06T00:50:35;4.70;85.00
51383;DHT22;37475;43.358;1.248;2023-04-06T00:53:01;4.70;85.30
51383;DHT22;37475;43.358;1.248;2023-04-06T00:55:27;4.60;85.50
51383;DHT22;37475;43.358;1.248;2023-04-06T00:57:54;4.50;85.80
51383;DHT22;37475;43.358;1.248;2023-04-06T01:00:22;4.50;85.70
51383;DHT22;37475;43.358;1.248;2023-04-06T01:02:49;4.50;85.80
51383;DHT22;37475;43.358;1.248;2023-04-06T01:05:15;4.50;85.90
51383;DHT22;37475;43.358;1.248;2023-04-06T01:07:41;4.50;86.00
51383;DHT22;37475;43.358;1.248;2023-04-06T01:10:07;4.60;86.00
51383;DHT22;37475;43.358;1.248;2023-04-06T01:12:33;4.60;85.60
51383;DHT22;37475;43.358;1.248;2023-04-06T01:14:59;4.60;85.20
51383;DHT22;37475;43.358;1.248;2023-04-06T01:17:25;4.60;85.10
51383;DHT22;37475;43.358;1.248;2023-04-06T01:19:51;4.60;85.00
51383;DHT22;37475;43.358;1.248;2023-04-06T01:22:19;4.60;85.00
51383;DHT22;37475;43.358;1.248;2023-04-06T01:24:45;4.60;84.80
51383;DHT22;37475;43.358;1.248;2023-04-06T01:27:12;4.60;85.00
51383;DHT22;37475;43.358;1.248;2023-04-06T01:29:38;4.60;84.70
51383;DHT22;37475;43.358;1.248;2023-04-06T01:32:07;4.70;84.20
51383;DHT22;37475;43.358;1.248;2023-04-06T01:34:33;4.70;83.90
51383;DHT22;37475;43.358;1.248;2023-04-06T01:36:59;4.40;84.80
51383;DHT22;37475;43.358;1.248;2023-04-06T01:39:25;4.30;85.40
51383;DHT22;37475;43.358;1.248;2023-04-06T01:41:51;4.20;86.00
51383;DHT22;37475;43.358;1.248;2023-04-06T01:44:17;4.30;86.10
51383;DHT22;37475;43.358;1.248;2023-04-06T01:46:47;4.20;86.20
51383;DHT22;37475;43.358;1.248;2023-04-06T01:49:12;4.10;86.50
51383;DHT22;37475;43.358;1.248;2023-04-06T01:51:38;4.10;86.60
51383;DHT22;37475;43.358;1.248;2023-04-06T01:54:05;4.10;86.60
51383;DHT22;37475;43.358;1.248;2023-04-06T01:56:30;4.10;86.60
51383;DHT22;37475;43.358;1.248;2023-04-06T01:58:56;4.10;86.60
51383;DHT22;37475;43.358;1.248;2023-04-06T02:01:22;4.10;86.60
51383;DHT22;37475;43.358;1.248;2023-04-06T02:03:48;4.10;86.80
51383;DHT22;37475;43.358;1.248;2023-04-06T02:06:14;4.10;87.00
51383;DHT22;37475;43.358;1.248;2023-04-06T02:08:40;4.00;87.10
51383;DHT22;37475;43.358;1.248;2023-04-06T02:11:05;4.00;87.20
51383;DHT22;37475;43.358;1.248;2023-04-06T02:13:31;4.00;87.20
51383;DHT22;37475;43.358;1.248;2023-04-06T02:15:57;4.10;87.00
51383;DHT22;37475;43.358;1.248;2023-04-06T02:18:23;4.00;87.00
51383;DHT22;37475;43.358;1.248;2023-04-06T02:20:49;4.00;87.20
51383;DHT22;37475;43.358;1.248;2023-04-06T02:23:15;3.90;87.10
51383;DHT22;37475;43.358;1.248;2023-04-06T02:25:41;3.90;87.20
51383;DHT22;37475;43.358;1.248;2023-04-06T02:28:07;3.80;87.30
51383;DHT22;37475;43.358;1.248;2023-04-06T02:30:33;3.80;87.60
51383;DHT22;37475;43.358;1.248;2023-04-06T02:33:02;3.80;87.50
51383;DHT22;37475;43.358;1.248;2023-04-06T02:35:29;3.70;87.40
51383;DHT22;37475;43.358;1.248;2023-04-06T02:37:55;3.70;87.20
51383;DHT22;37475;43.358;1.248;2023-04-06T02:40:22;3.70;86.90
51383;DHT22;37475;43.358;1.248;2023-04-06T02:42:47;3.70;86.80
51383;DHT22;37475;43.358;1.248;2023-04-06T02:45:13;3.80;86.70
51383;DHT22;37475;43.358;1.248;2023-04-06T02:47:39;3.80;86.70
51383;DHT22;37475;43.358;1.248;2023-04-06T02:50:05;3.70;86.80
51383;DHT22;37475;43.358;1.248;2023-04-06T02:52:32;3.80;86.70
51383;DHT22;37475;43.358;1.248;2023-04-06T02:54:58;3.70;86.70
51383;DHT22;37475;43.358;1.248;2023-04-06T02:57:23;3.70;86.70
51383;DHT22;37475;43.358;1.248;2023-04-06T02:59:49;3.80;86.70
51383;DHT22;37475;43.358;1.248;2023-04-06T03:02:15;3.80;86.60
51383;DHT22;37475;43.358;1.248;2023-04-06T03:04:42;3.80;86.30
51383;DHT22;37475;43.358;1.248;2023-04-06T03:07:08;3.80;86.30
51383;DHT22;37475;43.358;1.248;2023-04-06T03:09:36;3.80;86.50
51383;DHT22;37475;43.358;1.248;2023-04-06T03:12:02;3.90;86.40
51383;DHT22;37475;43.358;1.248;2023-04-06T03:14:28;3.90;86.10
51383;DHT22;37475;43.358;1.248;2023-04-06T03:16:54;4.00;85.80
51383;DHT22;37475;43.358;1.248;2023-04-06T03:19:20;4.00;85.80
51383;DHT22;37475;43.358;1.248;2023-04-06T03:21:46;4.10;85.80
51383;DHT22;37475;43.358;1.248;2023-04-06T03:24:12;4.00;86.00
51383;DHT22;37475;43.358;1.248;2023-04-06T03:26:39;4.00;86.20
51383;DHT22;37475;43.358;1.248;2023-04-06T03:29:05;4.00;86.60
51383;DHT22;37475;43.358;1.248;2023-04-06T03:31:31;4.10;86.60
51383;DHT22;37475;43.358;1.248;2023-04-06T03:33:56;4.00;86.30
51383;DHT22;37475;43.358;1.248;2023-04-06T03:36:22;4.10;86.30
51383;DHT22;37475;43.358;1.248;2023-04-06T03:38:48;4.20;86.10
51383;DHT22;37475;43.358;1.248;2023-04-06T03:41:15;4.20;85.90
51383;DHT22;37475;43.358;1.248;2023-04-06T03:43:41;4.30;85.90
51383;DHT22;37475;43.358;1.248;2023-04-06T03:46:06;4.30;85.80
51383;DHT22;37475;43.358;1.248;2023-04-06T03:48:32;4.30;85.80
51383;DHT22;37475;43.358;1.248;2023-04-06T03:50:58;4.30;85.80
51383;DHT22;37475;43.358;1.248;2023-04-06T03:53:24;4.40;86.00
51383;DHT22;37475;43.358;1.248;2023-04-06T03:55:50;4.40;86.10
51383;DHT22;37475;43.358;1.248;2023-04-06T03:58:16;4.50;86.10
51383;DHT22;37475;43.358;1.248;2023-04-06T04:00:41;4.60;85.80
51383;DHT22;37475;43.358;1.248;2023-04-06T04:03:07;4.70;85.60
51383;DHT22;37475;43.358;1.248;2023-04-06T04:05:33;4.70;85.80
51383;DHT22;37475;43.358;1.248;2023-04-06T04:07:59;4.60;86.00
51383;DHT22;37475;43.358;1.248;2023-04-06T04:10:25;4.60;85.90
51383;DHT22;37475;43.358;1.248;2023-04-06T04:12:50;4.60;86.00
51383;DHT22;37475;43.358;1.248;2023-04-06T04:15:16;4.60;85.90
51383;DHT22;37475;43.358;1.248;2023-04-06T04:17:42;4.60;86.10
51383;DHT22;37475;43.358;1.248;2023-04-06T04:20:12;4.70;86.00
51383;DHT22;37475;43.358;1.248;2023-04-06T04:22:38;4.70;86.40
51383;DHT22;37475;43.358;1.248;2023-04-06T04:25:06;4.70;86.60
51383;DHT22;37475;43.358;1.248;2023-04-06T04:27:32;4.70;86.70
51383;DHT22;37475;43.358;1.248;2023-04-06T04:29:57;4.70;87.00
51383;DHT22;37475;43.358;1.248;2023-04-06T04:32:23;4.70;87.10
51383;DHT22;37475;43.358;1.248;2023-04-06T04:34:53;4.70;87.20
51383;DHT22;37475;43.358;1.248;2023-04-06T04:37:19;4.70;87.40
51383;DHT22;37475;43.358;1.248;2023-04-06T04:39:45;4.70;87.50
51383;DHT22;37475;43.358;1.248;2023-04-06T04:42:11;4.70;87.60
51383;DHT22;37475;43.358;1.248;2023-04-06T04:44:37;4.70;87.60
51383;DHT22;37475;43.358;1.248;2023-04-06T04:47:03;4.70;87.70
51383;DHT22;37475;43.358;1.248;2023-04-06T04:49:29;4.90;87.40
51383;DHT22;37475;43.358;1.248;2023-04-06T04:51:55;4.90;87.00
51383;DHT22;37475;43.358;1.248;2023-04-06T04:54:20;4.90;86.60
51383;DHT22;37475;43.358;1.248;2023-04-06T04:56:46;5.00;85.90
51383;DHT22;37475;43.358;1.248;2023-04-06T04:59:12;5.10;85.60
51383;DHT22;37475;43.358;1.248;2023-04-06T05:01:38;5.10;85.50
51383;DHT22;37475;43.358;1.248;2023-04-06T05:04:04;5.10;85.60
51383;DHT22;37475;43.358;1.248;2023-04-06T05:06:30;5.10;86.00
51383;DHT22;37475;43.358;1.248;2023-04-06T05:08:55;5.10;86.40
51383;DHT22;37475;43.358;1.248;2023-04-06T05:11:21;5.00;86.50
51383;DHT22;37475;43.358;1.248;2023-04-06T05:13:47;4.90;86.60
51383;DHT22;37475;43.358;1.248;2023-04-06T05:16:13;4.90;86.40
51383;DHT22;37475;43.358;1.248;2023-04-06T05:18:39;4.80;86.10
51383;DHT22;37475;43.358;1.248;2023-04-06T05:21:05;4.80;86.40
51383;DHT22;37475;43.358;1.248;2023-04-06T05:23:31;4.70;86.80
51383;DHT22;37475;43.358;1.248;2023-04-06T05:25:56;4.60;87.00
51383;DHT22;37475;43.358;1.248;2023-04-06T05:28:22;4.60;86.90
51383;DHT22;37475;43.358;1.248;2023-04-06T05:30:48;4.60;86.70
51383;DHT22;37475;43.358;1.248;2023-04-06T05:33:14;4.60;86.60
51383;DHT22;37475;43.358;1.248;2023-04-06T05:35:40;4.60;86.40
51383;DHT22;37475;43.358;1.248;2023-04-06T05:38:08;4.60;86.40
51383;DHT22;37475;43.358;1.248;2023-04-06T05:40:35;4.60;86.40
51383;DHT22;37475;43.358;1.248;2023-04-06T05:43:03;4.60;86.50
51383;DHT22;37475;43.358;1.248;2023-04-06T05:45:29;4.60;86.40
51383;DHT22;37475;43.358;1.248;2023-04-06T05:47:55;4.60;86.30
51383;DHT22;37475;43.358;1.248;2023-04-06T05:50:21;4.70;86.20
51383;DHT22;37475;43.358;1.248;2023-04-06T05:52:47;4.70;86.00
51383;DHT22;37475;43.358;1.248;2023-04-06T05:55:13;4.70;85.80
51383;DHT22;37475;43.358;1.248;2023-04-06T05:57:39;4.70;85.70
51383;DHT22;37475;43.358;1.248;2023-04-06T06:00:06;4.80;85.70
51383;DHT22;37475;43.358;1.248;2023-04-06T06:02:35;4.70;85.80
51383;DHT22;37475;43.358;1.248;2023-04-06T06:05:01;4.80;85.70
51383;DHT22;37475;43.358;1.248;2023-04-06T06:07:27;4.90;85.60
51383;DHT22;37475;43.358;1.248;2023-04-06T06:09:56;5.00;85.50
51383;DHT22;37475;43.358;1.248;2023-04-06T06:12:23;5.00;85.50
51383;DHT22;37475;43.358;1.248;2023-04-06T06:14:49;5.10;85.50
51383;DHT22;37475;43.358;1.248;2023-04-06T06:17:15;5.10;85.40
51383;DHT22;37475;43.358;1.248;2023-04-06T06:19:41;5.20;85.50
51383;DHT22;37475;43.358;1.248;2023-04-06T06:22:06;5.30;85.20
51383;DHT22;37475;43.358;1.248;2023-04-06T06:24:32;5.40;85.20
51383;DHT22;37475;43.358;1.248;2023-04-06T06:26:58;5.50;84.80
51383;DHT22;37475;43.358;1.248;2023-04-06T06:29:24;5.60;84.60
51383;DHT22;37475;43.358;1.248;2023-04-06T06:31:50;5.60;84.40
51383;DHT22;37475;43.358;1.248;2023-04-06T06:34:16;5.70;84.40
51383;DHT22;37475;43.358;1.248;2023-04-06T06:36:41;5.70;84.20
51383;DHT22;37475;43.358;1.248;2023-04-06T06:39:07;5.80;84.10
51383;DHT22;37475;43.358;1.248;2023-04-06T06:41:33;6.00;84.20
51383;DHT22;37475;43.358;1.248;2023-04-06T06:43:59;6.00;83.80
51383;DHT22;37475;43.358;1.248;2023-04-06T06:46:25;6.00;83.60
51383;DHT22;37475;43.358;1.248;2023-04-06T06:48:51;6.10;83.60
51383;DHT22;37475;43.358;1.248;2023-04-06T06:51:17;6.20;83.40
51383;DHT22;37475;43.358;1.248;2023-04-06T06:53:42;6.40;83.00
51383;DHT22;37475;43.358;1.248;2023-04-06T06:56:08;6.30;82.50
51383;DHT22;37475;43.358;1.248;2023-04-06T06:58:34;6.40;82.10
51383;DHT22;37475;43.358;1.248;2023-04-06T07:01:00;6.40;82.20
51383;DHT22;37475;43.358;1.248;2023-04-06T07:03:26;6.50;82.20
51383;DHT22;37475;43.358;1.248;2023-04-06T07:05:52;6.70;82.00
51383;DHT22;37475;43.358;1.248;2023-04-06T07:08:22;6.70;81.70
51383;DHT22;37475;43.358;1.248;2023-04-06T07:10:49;6.60;82.20
51383;DHT22;37475;43.358;1.248;2023-04-06T07:13:18;6.60;83.00
51383;DHT22;37475;43.358;1.248;2023-04-06T07:15:50;6.70;83.50
51383;DHT22;37475;43.358;1.248;2023-04-06T07:18:17;6.70;83.80
51383;DHT22;37475;43.358;1.248;2023-04-06T07:20:46;6.80;84.20
51383;DHT22;37475;43.358;1.248;2023-04-06T07:23:12;6.90;84.00
51383;DHT22;37475;43.358;1.248;2023-04-06T07:25:38;7.00;83.90
51383;DHT22;37475;43.358;1.248;2023-04-06T07:28:04;7.00;83.70
51383;DHT22;37475;43.358;1.248;2023-04-06T07:30:30;7.10;83.90
51383;DHT22;37475;43.358;1.248;2023-04-06T07:32:56;7.20;83.70
51383;DHT22;37475;43.358;1.248;2023-04-06T07:35:26;7.30;84.00
51383;DHT22;37475;43.358;1.248;2023-04-06T07:37:53;7.40;83.80
51383;DHT22;37475;43.358;1.248;2023-04-06T07:40:20;7.50;83.00
51383;DHT22;37475;43.358;1.248;2023-04-06T07:42:46;7.60;81.90
51383;DHT22;37475;43.358;1.248;2023-04-06T07:45:12;7.90;81.40
51383;DHT22;37475;43.358;1.248;2023-04-06T07:47:38;8.10;81.30
51383;DHT22;37475;43.358;1.248;2023-04-06T07:50:05;8.20;80.50
51383;DHT22;37475;43.358;1.248;2023-04-06T07:52:31;8.30;80.80
51383;DHT22;37475;43.358;1.248;2023-04-06T07:54:58;8.40;81.10
51383;DHT22;37475;43.358;1.248;2023-04-06T07:57:24;8.60;81.30
51383;DHT22;37475;43.358;1.248;2023-04-06T07:59:50;8.70;80.80
51383;DHT22;37475;43.358;1.248;2023-04-06T08:02:16;8.90;79.60
51383;DHT22;37475;43.358;1.248;2023-04-06T08:04:43;9.10;78.80
51383;DHT22;37475;43.358;1.248;2023-04-06T08:07:09;9.30;79.30
51383;DHT22;37475;43.358;1.248;2023-04-06T08:09:35;9.10;78.50
51383;DHT22;37475;43.358;1.248;2023-04-06T08:12:01;9.20;78.50
51383;DHT22;37475;43.358;1.248;2023-04-06T08:14:27;9.10;77.90
51383;DHT22;37475;43.358;1.248;2023-04-06T08:16:52;9.10;78.10
51383;DHT22;37475;43.358;1.248;2023-04-06T08:19:18;9.10;77.40
51383;DHT22;37475;43.358;1.248;2023-04-06T08:21:45;9.20;77.50
51383;DHT22;37475;43.358;1.248;2023-04-06T08:24:12;9.20;77.60
51383;DHT22;37475;43.358;1.248;2023-04-06T08:26:39;9.30;77.50
51383;DHT22;37475;43.358;1.248;2023-04-06T08:29:05;9.40;77.80
51383;DHT22;37475;43.358;1.248;2023-04-06T08:31:33;9.50;77.20
51383;DHT22;37475;43.358;1.248;2023-04-06T08:34:00;9.60;77.00
51383;DHT22;37475;43.358;1.248;2023-04-06T08:36:27;9.60;76.80
51383;DHT22;37475;43.358;1.248;2023-04-06T08:38:53;9.80;77.20
51383;DHT22;37475;43.358;1.248;2023-04-06T08:41:19;10.00;77.40
51383;DHT22;37475;43.358;1.248;2023-04-06T08:43:54;10.10;76.80
51383;DHT22;37475;43.358;1.248;2023-04-06T08:46:24;10.30;76.70
51383;DHT22;37475;43.358;1.248;2023-04-06T08:49:00;10.40;75.40
51383;DHT22;37475;43.358;1.248;2023-04-06T08:51:28;10.40;73.90
51383;DHT22;37475;43.358;1.248;2023-04-06T08:53:57;10.60;73.20
51383;DHT22;37475;43.358;1.248;2023-04-06T08:56:27;10.60;73.00
51383;DHT22;37475;43.358;1.248;2023-04-06T08:58:54;10.70;74.00
51383;DHT22;37475;43.358;1.248;2023-04-06T09:01:26;10.90;74.50
51383;DHT22;37475;43.358;1.248;2023-04-06T09:03:56;11.00;73.30
51383;DHT22;37475;43.358;1.248;2023-04-06T09:06:23;11.00;71.20
51383;DHT22;37475;43.358;1.248;2023-04-06T09:08:51;11.10;70.50
51383;DHT22;37475;43.358;1.248;2023-04-06T09:11:17;11.20;69.80
51383;DHT22;37475;43.358;1.248;2023-04-06T09:13:48;11.20;68.40
51383;DHT22;37475;43.358;1.248;2023-04-06T09:16:15;11.40;69.70
51383;DHT22;37475;43.358;1.248;2023-04-06T09:18:41;11.60;69.00
51383;DHT22;37475;43.358;1.248;2023-04-06T09:21:09;11.60;66.40
51383;DHT22;37475;43.358;1.248;2023-04-06T09:23:36;11.70;67.00
51383;DHT22;37475;43.358;1.248;2023-04-06T09:26:17;11.80;67.30
51383;DHT22;37475;43.358;1.248;2023-04-06T09:28:48;11.70;66.40
51383;DHT22;37475;43.358;1.248;2023-04-06T09:31:16;11.80;67.30
51383;DHT22;37475;43.358;1.248;2023-04-06T09:33:47;12.10;66.90
51383;DHT22;37475;43.358;1.248;2023-04-06T09:36:13;12.20;68.10
51383;DHT22;37475;43.358;1.248;2023-04-06T09:39:01;12.40;66.20
51383;DHT22;37475;43.358;1.248;2023-04-06T09:44:10;12.50;65.00
51383;DHT22;37475;43.358;1.248;2023-04-06T09:46:39;12.60;65.50
51383;DHT22;37475;43.358;1.248;2023-04-06T09:49:10;12.60;63.70
51383;DHT22;37475;43.358;1.248;2023-04-06T09:51:40;12.80;64.80
51383;DHT22;37475;43.358;1.248;2023-04-06T09:54:07;12.50;64.10
51383;DHT22;37475;43.358;1.248;2023-04-06T09:56:53;12.30;64.10
51383;DHT22;37475;43.358;1.248;2023-04-06T10:02:40;12.80;64.80
51383;DHT22;37475;43.358;1.248;2023-04-06T10:08:04;13.10;61.70
51383;DHT22;37475;43.358;1.248;2023-04-06T10:10:32;13.10;62.20
51383;DHT22;37475;43.358;1.248;2023-04-06T10:12:58;13.30;61.80
51383;DHT22;37475;43.358;1.248;2023-04-06T10:15:27;13.10;60.30
51383;DHT22;37475;43.358;1.248;2023-04-06T10:17:54;13.10;62.80
51383;DHT22;37475;43.358;1.248;2023-04-06T10:23:19;13.70;60.20
51383;DHT22;37475;43.358;1.248;2023-04-06T10:25:55;13.80;60.00
51383;DHT22;37475;43.358;1.248;2023-04-06T10:28:22;14.10;59.70
51383;DHT22;37475;43.358;1.248;2023-04-06T10:30:49;14.30;55.60
51383;DHT22;37475;43.358;1.248;2023-04-06T10:33:19;14.70;56.30
51383;DHT22;37475;43.358;1.248;2023-04-06T10:35:46;14.80;53.80
51383;DHT22;37475;43.358;1.248;2023-04-06T10:38:12;14.60;55.70
51383;DHT22;37475;43.358;1.248;2023-04-06T10:40:41;14.70;55.50
51383;DHT22;37475;43.358;1.248;2023-04-06T10:43:22;14.70;55.10
51383;DHT22;37475;43.358;1.248;2023-04-06T10:46:00;15.00;54.60
51383;DHT22;37475;43.358;1.248;2023-04-06T10:48:40;15.20;53.80
51383;DHT22;37475;43.358;1.248;2023-04-06T10:51:14;15.30;55.20
51383;DHT22;37475;43.358;1.248;2023-04-06T10:53:48;15.00;53.50
51383;DHT22;37475;43.358;1.248;2023-04-06T10:56:16;15.60;48.40
51383;DHT22;37475;43.358;1.248;2023-04-06T10:58:52;15.80;46.80
51383;DHT22;37475;43.358;1.248;2023-04-06T11:01:20;16.00;49.50
51383;DHT22;37475;43.358;1.248;2023-04-06T11:03:49;16.10;45.70
51383;DHT22;37475;43.358;1.248;2023-04-06T11:08:48;16.60;46.80
51383;DHT22;37475;43.358;1.248;2023-04-06T11:11:17;17.10;45.80
51383;DHT22;37475;43.358;1.248;2023-04-06T11:19:02;17.20;44.20
51383;DHT22;37475;43.358;1.248;2023-04-06T11:21:37;17.20;47.30
51383;DHT22;37475;43.358;1.248;2023-04-06T11:24:20;17.60;45.70
51383;DHT22;37475;43.358;1.248;2023-04-06T11:26:54;17.70;44.50
51383;DHT22;37475;43.358;1.248;2023-04-06T11:29:22;18.10;45.80
51383;DHT22;37475;43.358;1.248;2023-04-06T11:31:52;18.30;45.90
51383;DHT22;37475;43.358;1.248;2023-04-06T11:34:29;17.80;39.80
51383;DHT22;37475;43.358;1.248;2023-04-06T11:37:01;18.10;41.30
51383;DHT22;37475;43.358;1.248;2023-04-06T11:39:31;18.50;41.20
51383;DHT22;37475;43.358;1.248;2023-04-06T11:42:01;18.40;38.30
51383;DHT22;37475;43.358;1.248;2023-04-06T11:44:36;17.60;39.90
51383;DHT22;37475;43.358;1.248;2023-04-06T11:47:08;17.70;38.20
51383;DHT22;37475;43.358;1.248;2023-04-06T11:49:39;18.10;38.60
51383;DHT22;37475;43.358;1.248;2023-04-06T11:52:24;18.40;38.90
51383;DHT22;37475;43.358;1.248;2023-04-06T11:54:52;18.90;39.10
51383;DHT22;37475;43.358;1.248;2023-04-06T11:57:21;18.70;33.20
51383;DHT22;37475;43.358;1.248;2023-04-06T11:59:48;18.90;32.30
51383;DHT22;37475;43.358;1.248;2023-04-06T12:02:15;19.00;34.30
51383;DHT22;37475;43.358;1.248;2023-04-06T12:04:41;19.20;30.60
51383;DHT22;37475;43.358;1.248;2023-04-06T12:07:06;19.40;33.90
51383;DHT22;37475;43.358;1.248;2023-04-06T12:09:32;19.10;33.10
51383;DHT22;37475;43.358;1.248;2023-04-06T12:11:59;19.30;31.90
51383;DHT22;37475;43.358;1.248;2023-04-06T12:14:26;19.50;33.90
51383;DHT22;37475;43.358;1.248;2023-04-06T12:16:51;19.70;33.20
51383;DHT22;37475;43.358;1.248;2023-04-06T12:19:17;19.80;32.10
51383;DHT22;37475;43.358;1.248;2023-04-06T12:21:43;19.40;31.50
51383;DHT22;37475;43.358;1.248;2023-04-06T12:24:09;19.60;31.70
51383;DHT22;37475;43.358;1.248;2023-04-06T12:26:35;19.20;31.70
51383;DHT22;37475;43.358;1.248;2023-04-06T12:29:02;19.50;30.50
51383;DHT22;37475;43.358;1.248;2023-04-06T12:31:36;19.90;31.70
51383;DHT22;37475;43.358;1.248;2023-04-06T12:34:02;20.00;32.00
51383;DHT22;37475;43.358;1.248;2023-04-06T12:36:28;20.10;32.10
51383;DHT22;37475;43.358;1.248;2023-04-06T12:38:55;20.10;31.40
51383;DHT22;37475;43.358;1.248;2023-04-06T12:41:21;19.90;31.80
51383;DHT22;37475;43.358;1.248;2023-04-06T12:43:48;20.10;28.30
51383;DHT22;37475;43.358;1.248;2023-04-06T12:46:15;19.50;32.20
51383;DHT22;37475;43.358;1.248;2023-04-06T12:48:41;20.10;29.40
51383;DHT22;37475;43.358;1.248;2023-04-06T12:51:06;20.50;31.70
51383;DHT22;37475;43.358;1.248;2023-04-06T12:53:33;20.10;31.70
51383;DHT22;37475;43.358;1.248;2023-04-06T12:56:00;20.50;29.50
51383;DHT22;37475;43.358;1.248;2023-04-06T12:58:27;20.30;25.50
51383;DHT22;37475;43.358;1.248;2023-04-06T13:00:53;19.50;26.50
51383;DHT22;37475;43.358;1.248;2023-04-06T13:03:21;19.20;29.80
51383;DHT22;37475;43.358;1.248;2023-04-06T13:05:49;19.20;29.80
51383;DHT22;37475;43.358;1.248;2023-04-06T13:08:16;19.50;29.50
51383;DHT22;37475;43.358;1.248;2023-04-06T13:10:52;19.70;28.90
51383;DHT22;37475;43.358;1.248;2023-04-06T13:13:26;21.00;28.90
51383;DHT22;37475;43.358;1.248;2023-04-06T13:15:54;21.40;29.00
51383;DHT22;37475;43.358;1.248;2023-04-06T13:18:21;21.50;28.00
51383;DHT22;37475;43.358;1.248;2023-04-06T13:20:48;21.60;27.70
51383;DHT22;37475;43.358;1.248;2023-04-06T13:23:14;20.70;30.10
51383;DHT22;37475;43.358;1.248;2023-04-06T13:25:41;21.50;28.50
51383;DHT22;37475;43.358;1.248;2023-04-06T13:28:08;21.50;29.30
51383;DHT22;37475;43.358;1.248;2023-04-06T13:30:35;22.10;30.90
51383;DHT22;37475;43.358;1.248;2023-04-06T13:33:01;22.00;28.80
51383;DHT22;37475;43.358;1.248;2023-04-06T13:35:27;22.30;29.10
51383;DHT22;37475;43.358;1.248;2023-04-06T13:37:53;22.50;28.00
51383;DHT22;37475;43.358;1.248;2023-04-06T13:40:19;22.30;26.00
51383;DHT22;37475;43.358;1.248;2023-04-06T13:42:46;21.80;31.00
51383;DHT22;37475;43.358;1.248;2023-04-06T13:45:12;22.40;25.00
51383;DHT22;37475;43.358;1.248;2023-04-06T13:47:38;22.20;26.70
51383;DHT22;37475;43.358;1.248;2023-04-06T13:50:05;22.00;29.00
51383;DHT22;37475;43.358;1.248;2023-04-06T13:52:31;20.30;28.70
51383;DHT22;37475;43.358;1.248;2023-04-06T13:54:57;19.60;29.50
51383;DHT22;37475;43.358;1.248;2023-04-06T13:57:23;20.50;29.60
51383;DHT22;37475;43.358;1.248;2023-04-06T13:59:49;22.00;26.10
51383;DHT22;37475;43.358;1.248;2023-04-06T14:02:17;22.20;25.10
51383;DHT22;37475;43.358;1.248;2023-04-06T14:04:44;21.40;28.90
51383;DHT22;37475;43.358;1.248;2023-04-06T14:07:10;22.00;27.80
51383;DHT22;37475;43.358;1.248;2023-04-06T14:09:36;23.00;27.80
51383;DHT22;37475;43.358;1.248;2023-04-06T14:12:02;23.10;25.70
51383;DHT22;37475;43.358;1.248;2023-04-06T14:14:27;23.40;26.20
51383;DHT22;37475;43.358;1.248;2023-04-06T14:16:53;23.50;25.10
51383;DHT22;37475;43.358;1.248;2023-04-06T14:19:19;24.10;21.70
51383;DHT22;37475;43.358;1.248;2023-04-06T14:21:47;24.00;22.90
51383;DHT22;37475;43.358;1.248;2023-04-06T14:24:14;23.20;22.90
51383;DHT22;37475;43.358;1.248;2023-04-06T14:26:41;24.00;22.00
51383;DHT22;37475;43.358;1.248;2023-04-06T14:29:08;24.20;21.80
51383;DHT22;37475;43.358;1.248;2023-04-06T14:31:34;24.20;23.10
51383;DHT22;37475;43.358;1.248;2023-04-06T14:34:02;24.20;25.30
51383;DHT22;37475;43.358;1.248;2023-04-06T14:36:30;24.30;23.40
51383;DHT22;37475;43.358;1.248;2023-04-06T14:39:02;23.70;22.70
51383;DHT22;37475;43.358;1.248;2023-04-06T14:41:31;23.90;23.70
51383;DHT22;37475;43.358;1.248;2023-04-06T14:43:58;23.90;24.80
51383;DHT22;37475;43.358;1.248;2023-04-06T14:46:24;23.90;23.30
51383;DHT22;37475;43.358;1.248;2023-04-06T14:48:50;23.60;24.20
51383;DHT22;37475;43.358;1.248;2023-04-06T14:51:16;23.70;22.70
51383;DHT22;37475;43.358;1.248;2023-04-06T14:53:42;24.20;23.60
51383;DHT22;37475;43.358;1.248;2023-04-06T14:56:08;24.40;22.70
51383;DHT22;37475;43.358;1.248;2023-04-06T14:58:34;23.90;25.10
51383;DHT22;37475;43.358;1.248;2023-04-06T15:01:01;23.70;22.70
51383;DHT22;37475;43.358;1.248;2023-04-06T15:03:28;23.90;22.80
51383;DHT22;37475;43.358;1.248;2023-04-06T15:05:55;24.00;23.10
51383;DHT22;37475;43.358;1.248;2023-04-06T15:08:24;24.10;25.20
51383;DHT22;37475;43.358;1.248;2023-04-06T15:10:51;24.30;23.30
51383;DHT22;37475;43.358;1.248;2023-04-06T15:13:17;24.40;23.60
51383;DHT22;37475;43.358;1.248;2023-04-06T15:15:44;24.10;24.60
51383;DHT22;37475;43.358;1.248;2023-04-06T15:18:10;24.30;23.30
51383;DHT22;37475;43.358;1.248;2023-04-06T15:20:37;24.80;22.40
51383;DHT22;37475;43.358;1.248;2023-04-06T15:23:03;24.90;23.00
51383;DHT22;37475;43.358;1.248;2023-04-06T15:25:30;24.50;23.80
51383;DHT22;37475;43.358;1.248;2023-04-06T15:27:56;25.00;23.10
51383;DHT22;37475;43.358;1.248;2023-04-06T15:30:23;24.30;23.30
51383;DHT22;37475;43.358;1.248;2023-04-06T15:32:57;24.80;23.90
51383;DHT22;37475;43.358;1.248;2023-04-06T15:35:29;24.70;23.70
51383;DHT22;37475;43.358;1.248;2023-04-06T15:37:58;23.10;24.90
51383;DHT22;37475;43.358;1.248;2023-04-06T15:40:24;23.10;25.80
51383;DHT22;37475;43.358;1.248;2023-04-06T15:42:50;23.70;25.10
51383;DHT22;37475;43.358;1.248;2023-04-06T15:45:16;24.30;24.80
51383;DHT22;37475;43.358;1.248;2023-04-06T15:47:43;24.60;24.30
51383;DHT22;37475;43.358;1.248;2023-04-06T15:50:10;24.20;23.90
51383;DHT22;37475;43.358;1.248;2023-04-06T15:52:38;24.40;23.70
51383;DHT22;37475;43.358;1.248;2023-04-06T15:55:05;25.30;22.30
51383;DHT22;37475;43.358;1.248;2023-04-06T15:57:32;24.60;24.20
51383;DHT22;37475;43.358;1.248;2023-04-06T15:59:58;24.50;24.40